< < Back
Terminal Aerodrome Forecast


Current Version              Previous Versions:   1  2  3  4  5  6  7  8  9  

Terminal Aerodrome Forecast

250
FTUS44 KBMX 011100
TAFBHM
TAF
KBHM 011120Z 0112/0212 17005KT P6SM SCT150
     FM020300 00000KT P6SM SKC=

Latest METAR

564
SAUS70 KWBC 011800 RRP
MTRBHM
METAR KBHM 011753Z 10006KT 10SM SCT065 SCT250 30/14 A3001 RMK AO2 SLP152
T03000139 10306 20161 58008


USA.gov is the U.S. government's official web portal to all federal, state and local government web resources and services.